Time;durP1;ratioP1;P1;durP2;ratioP2;P2;SDS_P1;SDS_P2;PMS_P1;PMS_P2;Temp;Humidity;BMP_temperature;BMP_pressure;BME280_temperature;BME280_humidity;BME280_pressure;Samples;Min_cycle;Max_cycle;Signal;HPM_P1;HPM_P2
2022/10/18 00:00:40;;;;;;;37.70;19.67;;;;;;;15.37;100.00;102221.38;6135942;23;20005;-75
2022/10/18 00:03:06;;;;;;;42.10;18.83;;;;;;;15.30;100.00;102220.28;6136319;23;20077;-74
2022/10/18 00:05:32;;;;;;;32.80;17.73;;;;;;;15.35;100.00;102228.00;6135403;23;20001;-75
2022/10/18 00:07:58;;;;;;;40.30;18.98;;;;;;;15.35;100.00;102222.53;6135609;23;20006;-74
2022/10/18 00:10:23;;;;;;;32.83;17.95;;;;;;;15.53;100.00;102225.28;6136079;23;20004;-75
2022/10/18 00:12:49;;;;;;;42.65;20.35;;;;;;;15.34;100.00;102227.16;6135321;23;20093;-75
2022/10/18 00:15:15;;;;;;;34.08;19.25;;;;;;;15.36;100.00;102224.25;6135244;23;20002;-75
2022/10/18 00:17:41;;;;;;;48.70;19.13;;;;;;;15.20;100.00;102224.97;6135280;23;20033;-75
2022/10/18 00:20:07;;;;;;;32.92;20.05;;;;;;;15.41;100.00;102222.78;6135857;23;20033;-75
2022/10/18 00:22:36;;;;;;;34.25;19.13;;;;;;;15.35;100.00;102233.47;6135325;23;20097;-75
2022/10/18 00:25:01;;;;;;;35.97;19.40;;;;;;;15.31;100.00;102232.91;6134893;23;20004;-74
2022/10/18 00:27:30;;;;;;;38.65;20.17;;;;;;;15.15;100.00;102232.75;6136995;23;20104;-75
2022/10/18 00:29:55;;;;;;;43.67;21.67;;;;;;;15.08;100.00;102237.13;6135414;23;20005;-75
2022/10/18 00:32:21;;;;;;;44.45;22.75;;;;;;;15.13;100.00;102240.25;6135550;23;20010;-75
2022/10/18 00:34:46;;;;;;;43.30;22.95;;;;;;;15.18;100.00;102237.88;6135166;23;20009;-75
2022/10/18 00:37:12;;;;;;;53.83;25.75;;;;;;;15.11;100.00;102232.19;6135884;23;20002;-75
2022/10/18 00:39:37;;;;;;;51.95;22.95;;;;;;;15.25;100.00;102238.97;6135881;23;20356;-76
2022/10/18 00:42:03;;;;;;;49.50;24.02;;;;;;;15.28;100.00;102237.84;6136142;23;20013;-76
2022/10/18 00:44:28;;;;;;;53.10;26.08;;;;;;;14.98;100.00;102244.50;6136443;23;20077;-76
2022/10/18 00:47:03;;;;;;;46.47;25.23;;;;;;;15.26;100.00;102251.63;6136635;23;20036;-76
2022/10/18 00:49:36;;;;;;;44.72;23.88;;;;;;;15.18;100.00;102259.72;6137662;23;20057;-76
2022/10/18 00:52:03;;;;;;;57.63;27.15;;;;;;;15.13;100.00;102262.06;6138724;23;20061;-76
2022/10/18 00:54:33;;;;;;;44.90;24.05;;;;;;;15.35;100.00;102250.69;6137033;23;20010;-76
2022/10/18 00:56:59;;;;;;;54.83;26.48;;;;;;;15.16;100.00;102261.75;6137669;23;20413;-76
2022/10/18 00:59:25;;;;;;;52.83;24.92;;;;;;;15.07;100.00;102257.25;6137021;23;20065;-76
2022/10/18 01:01:51;;;;;;;48.58;23.98;;;;;;;14.96;100.00;102250.13;6136910;23;19990;-76
2022/10/18 01:04:18;;;;;;;56.13;26.48;;;;;;;15.04;100.00;102247.47;6138052;23;19998;-76
2022/10/18 01:07:00;;;;;;;47.42;25.23;;;;;;;15.14;100.00;102241.97;6138368;23;20012;-76
2022/10/18 01:09:30;;;;;;;56.47;26.33;;;;;;;15.01;100.00;102242.34;6136934;23;19997;-75
2022/10/18 01:12:02;;;;;;;51.40;26.38;;;;;;;15.08;100.00;102237.13;6136681;23;20013;-75
2022/10/18 01:14:46;;;;;;;58.78;28.05;;;;;;;15.23;100.00;102249.22;6135750;23;20005;-75
2022/10/18 01:18:13;;;;;;;59.03;29.13;;;;;;;15.16;100.00;102243.50;6135996;23;20006;-75
2022/10/18 01:20:57;;;;;;;57.30;24.42;;;;;;;15.32;100.00;102239.22;6091066;23;20012;-75
2022/10/18 01:24:13;;;;;;;52.58;24.90;;;;;;;15.17;100.00;102247.09;6134962;23;20029;-75
2022/10/18 01:26:53;;;;;;;55.13;29.92;;;;;;;15.08;100.00;102250.75;6109185;23;20014;-75
2022/10/18 01:29:34;;;;;;;62.53;27.35;;;;;;;14.83;100.00;102250.47;6109627;23;20125;-75
2022/10/18 01:32:03;;;;;;;58.72;28.50;;;;;;;14.80;100.00;102250.78;6127719;23;20010;-75
2022/10/18 01:34:34;;;;;;;50.50;24.10;;;;;;;14.93;100.00;102245.84;6135551;23;19994;-75
2022/10/18 01:37:03;;;;;;;50.13;25.20;;;;;;;14.89;100.00;102254.47;6135467;23;20013;-75
2022/10/18 01:39:35;;;;;;;54.45;27.27;;;;;;;14.87;100.00;102251.91;6134977;23;20040;-75
2022/10/18 01:42:04;;;;;;;56.92;28.75;;;;;;;14.75;100.00;102247.66;6136184;23;20006;-75
2022/10/18 01:44:33;;;;;;;51.17;26.05;;;;;;;15.03;100.00;102256.66;6135493;23;20081;-76
2022/10/18 01:46:59;;;;;;;62.47;28.63;;;;;;;15.17;100.00;102255.28;6134763;23;20068;-76
2022/10/18 01:49:25;;;;;;;69.70;29.90;;;;;;;15.10;100.00;102268.69;6135877;23;20006;-75
2022/10/18 01:51:51;;;;;;;59.08;29.05;;;;;;;14.90;100.00;102261.63;6135426;23;20005;-75
2022/10/18 01:54:20;;;;;;;59.90;29.55;;;;;;;14.98;100.00;102264.44;6135060;23;20002;-75
2022/10/18 01:56:58;;;;;;;65.68;28.52;;;;;;;14.95;100.00;102269.38;6135586;23;20013;-75
2022/10/18 01:59:39;;;;;;;61.67;28.60;;;;;;;14.86;100.00;102261.06;6135657;23;20077;-76
2022/10/18 02:02:26;;;;;;;64.03;29.08;;;;;;;14.92;100.00;102265.91;6135539;23;20012;-75
2022/10/18 02:05:05;;;;;;;72.80;30.70;;;;;;;14.84;100.00;102263.09;6135305;23;20006;-75
2022/10/18 02:07:58;;;;;;;68.97;29.88;;;;;;;14.80;100.00;102267.16;6135756;23;20017;-75
2022/10/18 02:10:43;;;;;;;66.95;31.85;;;;;;;14.69;100.00;102264.63;6135765;23;20016;-75
2022/10/18 02:13:16;;;;;;;62.72;30.50;;;;;;;14.86;100.00;102261.06;6125177;23;20010;-75
2022/10/18 02:15:46;;;;;;;62.10;32.30;;;;;;;14.90;100.00;102262.50;6134816;23;20009;-74
2022/10/18 02:18:16;;;;;;;65.80;30.02;;;;;;;14.87;100.00;102267.41;6136263;23;20016;-75
2022/10/18 02:20:42;;;;;;;68.05;31.70;;;;;;;14.95;100.00;102258.47;6136801;23;19998;-75
2022/10/18 02:23:10;;;;;;;73.10;34.53;;;;;;;14.80;100.00;102256.25;6135553;23;20096;-75
2022/10/18 02:25:37;;;;;;;77.10;33.20;;;;;;;14.84;100.00;102257.66;6135477;23;19994;-75
2022/10/18 02:28:04;;;;;;;81.07;33.17;;;;;;;14.87;100.00;102262.81;6136162;23;20025;-75
2022/10/18 02:30:39;;;;;;;57.90;29.65;;;;;;;14.83;100.00;102253.22;6135345;23;20005;-75
2022/10/18 02:33:20;;;;;;;71.22;33.63;;;;;;;14.86;100.00;102252.03;6135562;23;20094;-75
2022/10/18 02:35:54;;;;;;;70.80;33.00;;;;;;;14.98;100.00;102249.97;6135391;23;20007;-74
2022/10/18 02:38:22;;;;;;;68.30;31.45;;;;;;;15.00;100.00;102250.69;6135768;23;20006;-75
2022/10/18 02:40:47;;;;;;;74.22;33.50;;;;;;;14.92;100.00;102249.56;6135882;23;20006;-75
2022/10/18 02:43:13;;;;;;;61.95;31.42;;;;;;;14.91;100.00;102252.44;6135774;23;20010;-75
2022/10/18 02:45:39;;;;;;;88.35;35.42;;;;;;;14.95;100.00;102247.56;6135960;23;20004;-75
2022/10/18 02:48:05;;;;;;;83.10;38.10;;;;;;;14.70;100.00;102243.66;6136148;23;20040;-75
2022/10/18 02:50:30;;;;;;;79.10;34.60;;;;;;;14.66;100.00;102248.56;6135806;23;20148;-75
2022/10/18 02:52:56;;;;;;;90.35;38.00;;;;;;;14.66;100.00;102243.09;6135347;23;20002;-75
2022/10/18 02:55:21;;;;;;;79.53;35.65;;;;;;;14.78;100.00;102247.34;6112700;23;20002;-75
2022/10/18 02:57:46;;;;;;;72.70;34.70;;;;;;;14.72;100.00;102253.41;6113141;23;19998;-75
2022/10/18 03:00:12;;;;;;;82.32;38.15;;;;;;;14.65;100.00;102247.69;6138362;23;20017;-75
2022/10/18 03:02:38;;;;;;;90.20;36.85;;;;;;;14.67;100.00;102242.13;6112517;23;20013;-75
2022/10/18 03:05:03;;;;;;;76.25;37.85;;;;;;;14.61;100.00;102251.75;6111863;23;20002;-75
2022/10/18 03:07:29;;;;;;;94.35;39.47;;;;;;;14.58;100.00;102245.72;6112485;23;20002;-75
2022/10/18 03:09:54;;;;;;;97.78;42.22;;;;;;;14.56;100.00;102248.63;6111918;23;19997;-75
2022/10/18 03:12:19;;;;;;;74.88;36.60;;;;;;;14.65;100.00;102241.38;6112772;23;20044;-75
2022/10/18 03:14:45;;;;;;;82.25;37.25;;;;;;;14.80;100.00;102245.34;6138631;23;20001;-75
2022/10/18 03:17:10;;;;;;;103.53;40.05;;;;;;;14.66;100.00;102240.38;6112401;23;20006;-75
2022/10/18 03:19:37;;;;;;;73.43;37.45;;;;;;;14.67;100.00;102228.50;6113321;23;20008;-76
2022/10/18 03:22:03;;;;;;;85.40;37.75;;;;;;;14.72;100.00;102231.59;6112924;23;20005;-75
2022/10/18 03:24:28;;;;;;;81.10;37.33;;;;;;;14.71;100.00;102235.34;6113826;23;20029;-75
2022/10/18 03:26:54;;;;;;;76.10;35.20;;;;;;;14.86;100.00;102228.34;6114445;23;20041;-75
2022/10/18 03:29:19;;;;;;;78.75;34.90;;;;;;;14.93;100.00;102229.47;6113855;23;20133;-75
2022/10/18 03:31:45;;;;;;;79.25;36.25;;;;;;;14.98;100.00;102236.31;6113214;23;20001;-75
2022/10/18 03:34:10;;;;;;;71.47;36.33;;;;;;;14.90;100.00;102234.38;6112937;23;19998;-76
2022/10/18 03:36:37;;;;;;;88.15;35.60;;;;;;;14.97;100.00;102234.59;6113578;23;20006;-75
2022/10/18 03:39:03;;;;;;;71.00;33.00;;;;;;;14.97;100.00;102235.47;6113289;23;19998;-75
2022/10/18 03:41:28;;;;;;;97.38;37.88;;;;;;;14.83;100.00;102231.38;6113127;23;20012;-75
2022/10/18 03:43:53;;;;;;;67.20;31.95;;;;;;;14.90;100.00;102228.91;6113322;23;20008;-76
2022/10/18 03:46:19;;;;;;;73.15;33.42;;;;;;;14.88;100.00;102231.78;6113035;23;20092;-76
2022/10/18 03:48:44;;;;;;;70.45;34.78;;;;;;;14.90;100.00;102240.66;6112651;23;20002;-75
2022/10/18 03:51:10;;;;;;;77.43;36.28;;;;;;;14.88;100.00;102229.06;6113326;23;20002;-75
2022/10/18 03:53:35;;;;;;;75.30;34.55;;;;;;;14.95;100.00;102236.63;6138896;23;20002;-75
2022/10/18 03:56:01;;;;;;;73.43;33.65;;;;;;;14.89;100.00;102236.22;6113160;23;20013;-75
2022/10/18 03:58:26;;;;;;;91.45;37.88;;;;;;;15.05;100.00;102240.13;6112859;23;20006;-76
2022/10/18 04:00:53;;;;;;;78.05;35.80;;;;;;;15.19;100.00;102225.97;6112494;23;20016;-75
2022/10/18 04:03:20;;;;;;;77.20;34.20;;;;;;;15.17;100.00;102225.28;6112374;23;20009;-75
2022/10/18 04:05:47;;;;;;;63.05;33.25;;;;;;;15.23;100.00;102235.56;6112869;23;20342;-75
2022/10/18 04:08:13;;;;;;;97.43;40.17;;;;;;;14.98;100.00;102223.53;6112696;23;20088;-75
2022/10/18 04:10:39;;;;;;;90.53;41.10;;;;;;;14.79;100.00;102231.84;6112877;23;20009;-75
2022/10/18 04:13:05;;;;;;;81.03;38.22;;;;;;;14.85;100.00;102226.63;6113364;23;20006;-75
2022/10/18 04:15:31;;;;;;;74.53;36.70;;;;;;;14.86;100.00;102222.88;6113378;23;20009;-75
2022/10/18 04:17:57;;;;;;;79.88;35.95;;;;;;;14.99;100.00;102222.53;6112880;23;19998;-75
2022/10/18 04:20:23;;;;;;;101.07;40.50;;;;;;;14.92;100.00;102225.00;6112968;23;20381;-76
2022/10/18 04:22:50;;;;;;;86.35;36.67;;;;;;;14.96;100.00;102216.53;6113274;23;20034;-76
2022/10/18 04:25:15;;;;;;;87.22;36.83;;;;;;;15.01;100.00;102219.66;6113047;23;20375;-76
2022/10/18 04:27:41;;;;;;;84.55;37.95;;;;;;;14.86;100.00;102228.34;6112520;23;20013;-75
2022/10/18 04:30:07;;;;;;;73.45;34.88;;;;;;;14.85;100.00;102221.19;6112484;23;20307;-75
2022/10/18 04:32:34;;;;;;;80.53;36.58;;;;;;;14.70;100.00;102211.81;6113390;23;20002;-74
2022/10/18 04:35:00;;;;;;;98.25;42.33;;;;;;;14.44;100.00;102216.22;6112597;23;20086;-76
2022/10/18 04:37:26;;;;;;;93.60;39.00;;;;;;;14.51;100.00;102203.75;6113276;23;20002;-76
2022/10/18 04:39:51;;;;;;;100.22;43.08;;;;;;;14.22;100.00;102207.44;6112439;23;20010;-74
2022/10/18 04:42:17;;;;;;;94.88;38.42;;;;;;;14.42;100.00;102207.34;6113334;23;20088;-75
2022/10/18 04:44:42;;;;;;;86.05;36.63;;;;;;;14.58;100.00;102207.56;6112054;23;20038;-75
2022/10/18 04:47:07;;;;;;;93.60;38.70;;;;;;;14.49;100.00;102209.34;6113086;23;20024;-75
2022/10/18 04:49:33;;;;;;;105.05;43.05;;;;;;;14.50;100.00;102210.19;6112867;23;20018;-75
2022/10/18 04:51:58;;;;;;;96.90;41.17;;;;;;;14.42;100.00;102212.81;6112624;23;20006;-74
2022/10/18 04:54:23;;;;;;;106.80;42.30;;;;;;;14.39;100.00;102219.38;6138234;23;20006;-75
2022/10/18 04:56:49;;;;;;;130.82;47.50;;;;;;;14.21;100.00;102216.59;6112726;23;20033;-74
2022/10/18 04:59:14;;;;;;;116.55;45.10;;;;;;;14.31;100.00;102217.41;6112732;23;20005;-75
2022/10/18 05:01:39;;;;;;;124.30;43.83;;;;;;;14.34;100.00;102217.13;6112173;23;19998;-75
2022/10/18 05:04:05;;;;;;;121.82;47.08;;;;;;;14.24;100.00;102221.75;6137687;23;19997;-75
2022/10/18 05:06:30;;;;;;;114.22;46.33;;;;;;;14.22;100.00;102218.34;6112323;23;20017;-75
2022/10/18 05:08:56;;;;;;;107.90;44.47;;;;;;;14.23;100.00;102225.50;6112594;23;20002;-75
2022/10/18 05:11:21;;;;;;;116.28;42.58;;;;;;;14.29;100.00;102219.44;6112658;23;20012;-75
2022/10/18 05:13:47;;;;;;;120.20;47.53;;;;;;;14.10;100.00;102216.78;6111446;23;20002;-75
2022/10/18 05:16:12;;;;;;;105.40;47.13;;;;;;;13.99;100.00;102211.50;6110577;23;20089;-75
2022/10/18 05:18:38;;;;;;;114.80;43.38;;;;;;;14.20;100.00;102203.97;6110846;23;20032;-75
2022/10/18 05:21:03;;;;;;;121.72;50.17;;;;;;;14.04;100.00;102215.50;6111431;23;20017;-76
2022/10/18 05:23:29;;;;;;;116.45;46.03;;;;;;;14.12;100.00;102201.16;6111135;23;20041;-75
2022/10/18 05:25:54;;;;;;;127.60;48.97;;;;;;;13.99;100.00;102198.75;6111068;23;20012;-77
2022/10/18 05:28:19;;;;;;;104.43;43.67;;;;;;;14.26;100.00;102207.97;6110462;23;20002;-74
2022/10/18 05:30:45;;;;;;;119.72;45.60;;;;;;;14.27;100.00;102210.53;6111956;23;20010;-75
2022/10/18 05:33:10;;;;;;;121.25;47.08;;;;;;;14.17;100.00;102209.75;6137373;23;20006;-75
2022/10/18 05:35:35;;;;;;;113.82;47.40;;;;;;;13.80;100.00;102217.88;6111738;23;19998;-75
2022/10/18 05:38:05;;;;;;;145.75;51.72;;;;;;;13.84;100.00;102219.31;6112156;23;20005;-75
2022/10/18 05:40:36;;;;;;;138.27;50.38;;;;;;;13.82;100.00;102216.72;6112078;23;20041;-75
2022/10/18 05:43:02;;;;;;;;;;;;;;;13.96;100.00;102222.72;6112324;23;20002;-75
2022/10/18 05:45:27;;;;;;;132.13;48.58;;;;;;;13.68;100.00;102213.59;6111693;23;19966;-74
2022/10/18 05:47:53;;;;;;;128.70;48.85;;;;;;;13.64;100.00;102223.06;6112549;23;20096;-75
2022/10/18 05:50:18;;;;;;;108.75;45.05;;;;;;;13.49;100.00;102236.22;6111618;23;20012;-75
2022/10/18 05:52:44;;;;;;;106.53;43.45;;;;;;;13.73;100.00;102223.03;6110830;23;20002;-75
2022/10/18 05:55:09;;;;;;;107.95;44.33;;;;;;;13.51;100.00;102228.81;6111976;23;20049;-75
2022/10/18 05:57:35;;;;;;;129.38;43.30;;;;;;;13.52;100.00;102225.06;6110858;23;20465;-75
2022/10/18 06:00:00;;;;;;;97.00;41.17;;;;;;;13.78;100.00;102231.63;6110661;23;20009;-76
2022/10/18 06:02:26;;;;;;;82.72;39.70;;;;;;;13.84;100.00;102230.19;6136528;23;20030;-75
2022/10/18 06:04:51;;;;;;;104.22;41.08;;;;;;;13.75;100.00;102237.34;6110519;23;20096;-75
2022/10/18 06:07:16;;;;;;;93.57;37.53;;;;;;;13.69;100.00;102231.63;6111019;23;20006;-75
2022/10/18 06:09:42;;;;;;;93.13;37.15;;;;;;;13.80;100.00;102240.50;6111675;23;20016;-75
2022/10/18 06:12:07;;;;;;;95.38;39.97;;;;;;;13.82;100.00;102245.78;6109965;23;20002;-76
2022/10/18 06:14:34;;;;;;;90.10;39.63;;;;;;;13.75;100.00;102248.25;6110572;23;19994;-76
2022/10/18 06:16:59;;;;;;;81.13;37.60;;;;;;;13.55;100.00;102246.53;6136102;23;20063;-76
2022/10/18 06:19:25;;;;;;;90.55;38.92;;;;;;;13.59;100.00;102253.44;6111865;23;20002;-75
2022/10/18 06:21:51;;;;;;;85.95;37.38;;;;;;;13.59;100.00;102247.97;6111538;23;20006;-76
2022/10/18 06:24:17;;;;;;;73.85;33.60;;;;;;;13.61;100.00;102248.69;6112102;23;19994;-75
2022/10/18 06:26:43;;;;;;;93.38;35.42;;;;;;;13.59;100.00;102237.09;6111697;23;20002;-76
2022/10/18 06:29:08;;;;;;;78.85;33.97;;;;;;;13.79;100.00;102238.78;6114314;23;20017;-75
2022/10/18 06:31:34;;;;;;;78.35;34.80;;;;;;;13.69;100.00;102243.41;6113905;23;20009;-75
2022/10/18 06:34:03;;;;;;;76.72;33.50;;;;;;;13.60;100.00;102237.94;6112922;23;20053;-75
2022/10/18 06:36:29;;;;;;;81.82;35.60;;;;;;;13.74;100.00;102230.19;6113228;23;20029;-76
2022/10/18 06:38:55;;;;;;;87.70;38.10;;;;;;;13.68;100.00;102235.34;6112762;23;20044;-75
2022/10/18 06:41:21;;;;;;;91.53;39.70;;;;;;;13.65;100.00;102247.41;6113112;23;19998;-75
2022/10/18 06:43:48;;;;;;;100.18;40.47;;;;;;;13.70;100.00;102239.69;6112584;23;20002;-76
2022/10/18 06:46:13;;;;;;;87.68;36.92;;;;;;;13.85;100.00;102242.78;6112647;23;20045;-75
2022/10/18 06:48:39;;;;;;;90.05;37.42;;;;;;;13.91;100.00;102241.34;6113289;23;20002;-75
2022/10/18 06:51:05;;;;;;;76.78;34.53;;;;;;;14.16;100.00;102246.16;6112838;23;20006;-75
2022/10/18 06:53:33;;;;;;;96.50;38.13;;;;;;;14.25;100.00;102249.84;6121554;23;20013;-75
2022/10/18 06:56:01;;;;;;;79.30;35.15;;;;;;;14.19;100.00;102256.75;6142476;23;20029;-76
2022/10/18 06:58:27;;;;;;;86.00;37.65;;;;;;;14.27;100.00;102270.47;6142050;23;20013;-75
2022/10/18 07:00:52;;;;;;;81.88;37.88;;;;;;;14.24;100.00;102268.06;6167663;23;20009;-75
2022/10/18 07:03:18;;;;;;;80.65;35.10;;;;;;;13.94;100.00;102268.28;6141229;23;20019;-75
2022/10/18 07:05:43;;;;;;;74.18;36.53;;;;;;;13.77;100.00;102267.19;6141698;23;20020;-75
2022/10/18 07:08:09;;;;;;;71.30;33.20;;;;;;;13.65;100.00;102269.19;6141901;23;20012;-75
2022/10/18 07:10:34;;;;;;;77.80;36.25;;;;;;;13.73;100.00;102282.94;6141115;23;20002;-75
2022/10/18 07:12:59;;;;;;;68.72;32.42;;;;;;;13.80;100.00;102289.50;6141587;23;20005;-75
2022/10/18 07:15:25;;;;;;;72.43;29.92;;;;;;;13.84;100.00;102296.41;6142038;23;20094;-75
2022/10/18 07:17:50;;;;;;;65.07;25.52;;;;;;;13.84;100.00;102295.53;6141496;23;20013;-75
2022/10/18 07:20:16;;;;;;;55.60;27.05;;;;;;;14.04;100.00;102296.38;6141838;23;20041;-76
2022/10/18 07:22:41;;;;;;;60.50;26.67;;;;;;;13.77;100.00;102294.41;6141781;23;20077;-75
2022/10/18 07:25:07;;;;;;;57.95;26.38;;;;;;;13.81;100.00;102302.09;6167045;23;20025;-76
2022/10/18 07:27:41;;;;;;;58.17;27.25;;;;;;;13.79;100.00;102309.56;6141773;23;20005;-76
2022/10/18 07:30:08;;;;;;;64.65;26.33;;;;;;;13.84;100.00;102300.97;6140945;23;20001;-76
2022/10/18 07:32:34;;;;;;;61.03;26.23;;;;;;;13.78;100.00;102307.84;6141355;23;20005;-76
2022/10/18 07:35:01;;;;;;;58.53;24.60;;;;;;;13.81;100.00;102307.56;6167351;23;20025;-76
2022/10/18 07:37:27;;;;;;;58.10;25.70;;;;;;;14.08;100.00;102309.56;6141184;23;20052;-76
2022/10/18 07:39:52;;;;;;;68.00;27.10;;;;;;;13.96;100.00;102304.41;6139676;23;20013;-75
2022/10/18 07:42:18;;;;;;;64.95;25.42;;;;;;;14.00;100.00;102311.28;6139560;23;20003;-75
2022/10/18 07:44:43;;;;;;;54.70;25.00;;;;;;;13.93;100.00;102310.13;6138224;23;19997;-75
2022/10/18 07:47:08;;;;;;;57.95;25.17;;;;;;;13.81;100.00;102313.00;6128897;23;20005;-75
2022/10/18 07:49:34;;;;;;;49.63;23.77;;;;;;;14.08;100.00;102301.38;6130551;23;20002;-74
2022/10/18 07:51:59;;;;;;;65.30;27.17;;;;;;;13.94;100.00;102299.09;6133650;23;20009;-76
2022/10/18 07:54:24;;;;;;;58.47;25.95;;;;;;;13.95;100.00;102297.22;6133341;23;20006;-76
2022/10/18 07:56:50;;;;;;;66.10;28.05;;;;;;;14.06;100.00;102306.09;6134442;23;20001;-75
2022/10/18 07:59:15;;;;;;;60.45;26.27;;;;;;;13.98;100.00;102310.56;6134192;23;20005;-75
2022/10/18 08:01:40;;;;;;;71.68;30.73;;;;;;;13.86;100.00;102309.84;6134326;23;20008;-74
2022/10/18 08:04:06;;;;;;;76.03;29.25;;;;;;;13.97;100.00;102306.13;6134881;23;20005;-75
2022/10/18 08:06:31;;;;;;;61.97;29.38;;;;;;;14.06;100.00;102305.25;6133305;23;20010;-75
2022/10/18 08:08:57;;;;;;;68.57;31.13;;;;;;;13.92;100.00;102308.41;6135040;23;20036;-75
2022/10/18 08:11:24;;;;;;;62.85;28.40;;;;;;;13.87;100.00;102310.72;6159841;23;19997;-75
2022/10/18 08:13:51;;;;;;;67.78;27.77;;;;;;;14.04;100.00;102318.16;6132831;23;20012;-75
2022/10/18 08:16:23;;;;;;;55.38;25.15;;;;;;;13.86;100.00;102309.84;6134561;23;20025;-75
2022/10/18 08:18:48;;;;;;;;;;;;;;;13.91;100.00;102306.72;6135234;23;20001;-74
2022/10/18 08:21:14;;;;;;;49.83;24.00;;;;;;;13.85;100.00;102311.72;6133498;23;20279;-75
2022/10/18 08:23:40;;;;;;;60.63;25.05;;;;;;;13.73;100.00;102310.16;6133459;23;20009;-76
2022/10/18 08:26:09;;;;;;;55.88;24.38;;;;;;;13.99;100.00;102315.00;6132974;23;20017;-75
2022/10/18 08:28:37;;;;;;;59.50;25.70;;;;;;;13.81;100.00;102318.44;6132733;23;20004;-74
2022/10/18 08:31:05;;;;;;;57.92;23.05;;;;;;;13.86;100.00;102318.03;6133467;23;20001;-75
2022/10/18 08:33:32;;;;;;;72.50;27.10;;;;;;;13.59;100.00;102313.31;6133600;23;20025;-75
2022/10/18 08:36:04;;;;;;;58.33;24.83;;;;;;;13.76;100.00;102309.88;6132833;23;20076;-75
2022/10/18 08:38:30;;;;;;;;;;;;;;;13.83;100.00;102305.56;6134581;23;20060;-75
2022/10/18 08:41:17;;;;;;;55.50;25.27;;;;;;;13.77;100.00;102300.69;6132128;23;19904;-76
2022/10/18 08:44:01;;;;;;;62.72;24.42;;;;;;;14.04;100.00;102307.25;6132767;23;20033;-75
2022/10/18 08:46:27;;;;;;;54.85;25.23;;;;;;;13.83;100.00;102305.56;6159209;23;20121;-74
2022/10/18 08:48:55;;;;;;;56.28;24.17;;;;;;;13.95;100.00;102324.47;6133248;23;20005;-75
2022/10/18 08:51:34;;;;;;;58.47;22.85;;;;;;;13.99;100.00;102315.84;6131736;23;20009;-75
2022/10/18 08:54:11;;;;;;;53.13;22.42;;;;;;;14.22;100.00;102308.22;6131858;23;20066;-76
2022/10/18 08:56:39;;;;;;;54.75;23.38;;;;;;;13.81;100.00;102318.44;6131660;23;20005;-75
2022/10/18 08:59:09;;;;;;;43.60;20.60;;;;;;;14.12;100.00;102323.72;6131184;23;20001;-74
2022/10/18 09:01:42;;;;;;;48.83;21.85;;;;;;;14.07;100.00;102317.84;6131207;23;20005;-75
2022/10/18 09:04:25;;;;;;;49.08;21.38;;;;;;;14.32;100.00;102322.69;6158144;23;20013;-74
2022/10/18 09:07:26;;;;;;;49.22;21.83;;;;;;;14.25;100.00;102327.00;6132934;23;20033;-74
2022/10/18 09:09:55;;;;;;;40.28;20.48;;;;;;;14.11;100.00;102330.19;6116124;23;20001;-75
2022/10/18 09:12:59;;;;;;;60.42;21.92;;;;;;;14.00;100.00;102327.59;6132611;23;19998;-75
2022/10/18 09:15:40;;;;;;;42.60;18.70;;;;;;;14.11;100.00;102335.63;6131853;23;20440;-74
2022/10/18 09:18:17;;;;;;;55.08;21.98;;;;;;;14.08;100.00;102330.47;6131712;23;20036;-73
2022/10/18 09:20:55;;;;;;;49.47;21.40;;;;;;;14.14;100.00;102327.16;6132341;23;20009;-74
2022/10/18 09:23:39;;;;;;;41.30;18.60;;;;;;;14.48;100.00;102326.69;6131906;23;20016;-74
2022/10/18 09:26:16;;;;;;;47.42;20.60;;;;;;;14.29;100.00;102322.13;6131221;23;20078;-75
2022/10/18 09:29:06;;;;;;;49.40;19.02;;;;;;;14.54;100.00;102326.06;6131776;23;20013;-74
2022/10/18 09:31:46;;;;;;;36.75;18.50;;;;;;;14.60;100.00;102328.22;6132770;23;20021;-75
2022/10/18 09:34:45;;;;;;;42.28;19.38;;;;;;;14.47;100.00;102324.97;6159386;23;19998;-75
2022/10/18 09:37:16;;;;;;;37.33;18.55;;;;;;;14.74;100.00;102322.31;6157540;23;20092;-74
2022/10/18 09:39:42;;;;;;;35.85;17.20;;;;;;;14.69;98.92;102321.88;6132552;23;20012;-74
2022/10/18 09:42:25;;;;;;;40.60;17.13;;;;;;;14.53;99.73;102325.22;6133804;23;20012;-74
2022/10/18 09:45:26;;;;;;;40.75;15.80;;;;;;;14.99;97.21;102322.59;6132426;23;20360;-74
2022/10/18 09:48:19;;;;;;;27.15;13.63;;;;;;;15.44;95.25;102326.19;6118360;23;20014;-74
2022/10/18 09:50:53;;;;;;;36.78;15.38;;;;;;;15.16;95.46;102327.25;6129773;23;20041;-74
2022/10/18 09:53:49;;;;;;;31.55;14.45;;;;;;;15.42;96.08;102328.22;6150356;23;20006;-74
2022/10/18 09:56:21;;;;;;;32.83;13.82;;;;;;;15.44;95.30;102326.19;6103152;23;20002;-75
2022/10/18 09:58:50;;;;;;;35.10;14.80;;;;;;;15.29;95.24;102322.28;6102723;23;19998;-74
2022/10/18 10:01:20;;;;;;;34.85;14.82;;;;;;;15.23;95.62;102322.88;6102651;23;20436;-74
2022/10/18 10:03:45;;;;;;;28.02;13.48;;;;;;;15.27;95.20;102324.31;6105504;23;20088;-74
2022/10/18 10:06:10;;;;;;;28.92;11.40;;;;;;;15.48;92.03;102327.59;6130541;23;20033;-75
2022/10/18 10:08:40;;;;;;;30.83;10.90;;;;;;;15.37;92.31;102311.44;6104172;23;20009;-75
2022/10/18 10:11:35;;;;;;;26.40;10.52;;;;;;;15.54;91.60;102308.88;6131291;23;20033;-74
2022/10/18 10:14:11;;;;;;;33.50;9.57;;;;;;;15.68;89.99;102311.09;6104172;23;20005;-73
2022/10/18 10:16:50;;;;;;;25.25;10.75;;;;;;;16.05;88.14;102312.78;6103720;23;20005;-74
2022/10/18 10:19:17;;;;;;;25.15;10.45;;;;;;;15.62;89.83;102301.66;6104094;23;20009;-75
2022/10/18 10:21:43;;;;;;;29.90;11.13;;;;;;;15.48;90.61;102305.75;6105635;23;20431;-73
2022/10/18 10:24:34;;;;;;;27.10;11.25;;;;;;;15.64;90.17;102312.41;6103388;23;20030;-74
2022/10/18 10:27:16;;;;;;;30.17;11.13;;;;;;;15.56;89.61;102312.31;6104831;23;20010;-73
2022/10/18 10:29:44;;;;;;;32.67;11.38;;;;;;;15.58;89.98;102315.72;6103880;23;20260;-74
2022/10/18 10:32:16;;;;;;;28.25;11.95;;;;;;;15.96;89.07;102320.88;6104918;23;20433;-75
2022/10/18 10:34:42;;;;;;;29.27;11.85;;;;;;;15.70;89.34;102322.72;6104207;23;20005;-75
2022/10/18 10:37:34;;;;;;;30.90;13.35;;;;;;;15.73;89.25;102326.00;6105056;23;20076;-75
2022/10/18 10:40:15;;;;;;;25.98;12.35;;;;;;;15.89;89.14;102319.81;6105647;23;20061;-75
2022/10/18 10:43:04;;;;;;;29.23;12.52;;;;;;;15.79;90.04;102319.06;6105148;23;20002;-75
2022/10/18 10:45:34;;;;;;;39.38;13.20;;;;;;;16.42;86.81;102321.56;6104279;23;20005;-74
2022/10/18 10:48:23;;;;;;;30.42;12.48;;;;;;;16.29;86.95;102316.53;6104302;23;20032;-74
2022/10/18 10:51:05;;;;;;;29.30;11.32;;;;;;;16.08;87.95;102334.31;6103971;23;20005;-75
2022/10/18 10:53:38;;;;;;;24.45;11.70;;;;;;;16.09;87.27;102341.47;6112484;23;20032;-76
2022/10/18 10:56:05;;;;;;;30.73;10.95;;;;;;;16.02;84.63;102325.72;6132928;23;20001;-75
2022/10/18 10:58:38;;;;;;;25.05;9.77;;;;;;;15.95;85.00;102330.09;6134511;23;20048;-75
2022/10/18 11:01:19;;;;;;;20.70;8.65;;;;;;;16.19;83.48;102336.78;6134543;23;20002;-75
2022/10/18 11:03:46;;;;;;;24.73;9.38;;;;;;;16.33;85.20;102338.09;6157255;23;20008;-75
2022/10/18 11:06:27;;;;;;;26.25;9.88;;;;;;;16.26;85.95;102337.88;6157159;23;20009;-75
2022/10/18 11:08:56;;;;;;;34.60;10.13;;;;;;;16.73;84.46;102351.19;6133028;23;20009;-75
2022/10/18 11:11:27;;;;;;;28.23;9.93;;;;;;;17.26;82.16;102344.56;6132435;23;20001;-75
2022/10/18 11:13:55;;;;;;;30.77;10.88;;;;;;;16.57;80.50;102340.13;6133259;23;20006;-74